Redwood City, CA (94064)

5:00 AM PST on December 20, 2014 (GMT -0800)
Redwood City Hills | Change Station
CLOSE
Current Station
Personal Weather Station
Location: Redwood City, CA
Elevation: 170 ft
Nearby Weather Stations
Active Advisory: Coastal Flood Advisory Active Notice: Public Information Statement

Elev 170 ft 37.47 °N, 122.25 °W | Updated 1 minute ago

Overcast
Overcast
56.1 °F
Feels Like 56.1 °F
N
0.0
Wind Variable Wind from North
Gusts 0.0 mph

Today
High -- | Low -- °F
--% Chance of Precip.
Yesterday
High -- | Low -- °F
Precip. -- in
7:19 AM 4:54 PM
Waning Crescent, 3% visible
Pressure 30.15 in
Visibility 5.0 miles
Clouds Few 600 ft
Scattered Clouds 2100 ft
Mostly Cloudy 5000 ft
Dew Point 55 °F
Humidity 96%
Rainfall 0.00 in
Snow Depth Not available.
UV 0 out of 12
Pollen 4.00 out of 12
Air Quality Not available.
Flu Activity Not available.
METAR KSQL 201255Z AUTO 00000KT 5SM BR FEW006 SCT021 BKN050 13/13 A3015 RMK AO2

More Conditions Fewer Conditions

Pressure 30.15 in
Visibility 5.0 miles
Clouds Few 600 ft
Scattered Clouds 2100 ft
Mostly Cloudy 5000 ft
Dew Point 55 °F
Humidity 96%
Rainfall 0.00 in
Snow Depth Not available.
UV 0 out of 12
Pollen 4.00 out of 12
Air Quality Not available.
Flu Activity Not available.
METAR KSQL 201255Z AUTO 00000KT 5SM BR FEW006 SCT021 BKN050 13/13 A3015 RMK AO2

More Conditions Fewer Conditions

10-Day Weather Forecast

Almanac

Astronomy

Dec. 20, 2014 Rise Set
Actual Time
Civil Twilight
Nautical Twilight
Astronomical Twilight
Moon
Length of Visible Light
Length of Day
Tomorrow will be .
, % of the Moon is Illuminated

Today's Extremes

State Highs State Lows

Community

WunderPhotos

Upload Photos

1,779,167 photos uploaded!

WunderBlogs® & News

Nearby

Air Quality

  Air Quality AQ Index Pollutant
Not available.

Snow Depth

Station Depth Elevation

Earthquake Activity

City Distance Mag. Time & Date
Minimum magnitude displayed is 2.5.

Coastal Water Temperatures

Place Temperature

Nearby Weather Stations